createdAt,value
2018-08-11T06:16:38.862Z,98511.88
2018-08-11T06:17:41.384Z,98509.89
2018-08-11T06:18:43.904Z,98513.53
2018-08-11T06:19:46.377Z,98521.17
2018-08-11T06:20:48.888Z,98519.19
2018-08-11T06:21:51.779Z,98524.52
2018-08-11T06:22:54.261Z,98522.63
2018-08-11T06:23:56.761Z,98522.43
2018-08-11T06:24:59.257Z,98521.97
2018-08-11T06:26:01.745Z,98518.58
2018-08-11T06:27:04.250Z,98516.72
2018-08-11T07:05:35.065Z,98532.08
2018-08-11T07:06:37.796Z,98533.59
2018-08-11T07:07:40.368Z,98523.35
2018-08-11T07:08:43.887Z,98532.05
2018-08-11T07:09:46.368Z,98535.55
2018-08-11T07:10:49.225Z,98534.91
2018-08-11T07:11:51.754Z,98540.34
2018-08-11T07:12:54.250Z,98540.23
2018-08-11T07:13:56.724Z,98537.52
2018-08-11T07:15:00.035Z,98546.28
2018-08-11T07:16:02.556Z,98538.78
2018-08-11T07:17:05.061Z,98539.34
2018-08-11T07:18:07.537Z,98532.53
2018-08-11T07:19:10.012Z,98539.34
2018-08-11T07:20:12.486Z,98544.92
2018-08-11T07:21:15.027Z,98533.33
2018-08-11T07:22:17.966Z,98551.21
2018-08-11T07:23:20.492Z,98534.08
2018-08-11T07:24:22.998Z,98549.39
2018-08-11T07:25:25.488Z,98555.89
2018-08-11T07:26:28.271Z,98549.16
2018-08-11T07:27:33.793Z,98554.76
2018-08-11T07:28:36.269Z,98553.55
2018-08-11T07:29:39.405Z,98553.02
2018-08-11T07:30:41.911Z,98556.36
2018-08-11T07:31:44.415Z,98556.25
2018-08-11T07:32:46.906Z,98553.59
2018-08-11T07:33:49.796Z,98544.45
2018-08-11T07:34:52.263Z,98555.93
2018-08-11T07:35:54.787Z,98552.34
2018-08-11T07:36:57.263Z,98542.19
2018-08-11T07:37:59.792Z,98553.96
2018-08-11T07:39:02.300Z,98548.30
2018-08-11T19:39:59.334Z,98508.34
2018-08-11T19:41:01.934Z,98496.34
2018-08-11T19:42:04.528Z,98504.95
2018-08-11T21:35:32.969Z,98490.23
2018-08-11T21:36:36.563Z,98490.61
